sensor_id;sensor_type;location;lat;lon;timestamp;temperature;humidity
50690;DHT22;71367;48.298;11.238;2024-01-30T00:01:13;-3.00;99.90
50690;DHT22;71367;48.298;11.238;2024-01-30T00:16:24;-3.00;99.90
50690;DHT22;71367;48.298;11.238;2024-01-30T00:31:29;-3.10;99.90
50690;DHT22;71367;48.298;11.238;2024-01-30T00:46:34;-3.10;99.90
50690;DHT22;71367;48.298;11.238;2024-01-30T01:01:40;-3.10;99.90
50690;DHT22;71367;48.298;11.238;2024-01-30T01:16:44;-3.10;99.90
50690;DHT22;71367;48.298;11.238;2024-01-30T01:31:49;-3.30;99.90
50690;DHT22;71367;48.298;11.238;2024-01-30T01:46:54;-3.40;99.90
50690;DHT22;71367;48.298;11.238;2024-01-30T02:01:59;-3.40;99.90
50690;DHT22;71367;48.298;11.238;2024-01-30T03:03:38;-3.80;99.90
50690;DHT22;71367;48.298;11.238;2024-01-30T04:04:55;-4.00;99.90
50690;DHT22;71367;48.298;11.238;2024-01-30T04:19:58;-4.10;99.90
50690;DHT22;71367;48.298;11.238;2024-01-30T05:06:12;-4.10;99.90
50690;DHT22;71367;48.298;11.238;2024-01-30T05:33:06;-4.10;99.90
50690;DHT22;71367;48.298;11.238;2024-01-30T05:48:10;-4.10;99.90
50690;DHT22;71367;48.298;11.238;2024-01-30T10:55:47;10.20;99.90
50690;DHT22;71367;48.298;11.238;2024-01-30T11:10:55;11.40;99.90
50690;DHT22;71367;48.298;11.238;2024-01-30T11:26:00;11.60;96.90
50690;DHT22;71367;48.298;11.238;2024-01-30T17:27:34;5.00;99.90
50690;DHT22;71367;48.298;11.238;2024-01-30T17:42:41;4.30;99.90
50690;DHT22;71367;48.298;11.238;2024-01-30T17:57:46;3.70;99.90
50690;DHT22;71367;48.298;11.238;2024-01-30T18:12:51;3.10;99.90
50690;DHT22;71367;48.298;11.238;2024-01-30T18:27:57;2.70;99.90
50690;DHT22;71367;48.298;11.238;2024-01-30T18:43:03;2.30;99.90
50690;DHT22;71367;48.298;11.238;2024-01-30T18:58:09;2.00;99.90
50690;DHT22;71367;48.298;11.238;2024-01-30T19:13:13;1.80;99.90
50690;DHT22;71367;48.298;11.238;2024-01-30T19:28:17;1.60;99.90
50690;DHT22;71367;48.298;11.238;2024-01-30T19:43:21;1.40;99.90
50690;DHT22;71367;48.298;11.238;2024-01-30T19:58:25;1.20;99.90
50690;DHT22;71367;48.298;11.238;2024-01-30T20:13:28;1.10;99.90
50690;DHT22;71367;48.298;11.238;2024-01-30T20:28:32;0.90;99.90
50690;DHT22;71367;48.298;11.238;2024-01-30T20:43:36;0.80;99.90
50690;DHT22;71367;48.298;11.238;2024-01-30T20:58:39;0.70;99.90
50690;DHT22;71367;48.298;11.238;2024-01-30T21:13:43;0.50;99.90
50690;DHT22;71367;48.298;11.238;2024-01-30T21:28:47;0.60;99.90
50690;DHT22;71367;48.298;11.238;2024-01-30T21:43:51;0.70;99.90
50690;DHT22;71367;48.298;11.238;2024-01-30T21:58:55;0.70;99.90
50690;DHT22;71367;48.298;11.238;2024-01-30T22:13:58;0.90;99.90
50690;DHT22;71367;48.298;11.238;2024-01-30T22:29:02;1.00;99.90
50690;DHT22;71367;48.298;11.238;2024-01-30T22:44:06;1.10;99.90
50690;DHT22;71367;48.298;11.238;2024-01-30T22:59:10;1.20;99.90
50690;DHT22;71367;48.298;11.238;2024-01-30T23:14:14;1.40;99.90
50690;DHT22;71367;48.298;11.238;2024-01-30T23:29:19;1.50;99.90
50690;DHT22;71367;48.298;11.238;2024-01-30T23:44:23;1.70;99.90
50690;DHT22;71367;48.298;11.238;2024-01-30T23:59:27;1.70;99.90
